sensor_id;sensor_type;location;lat;lon;timestamp;temperature;humidity
57390;DHT22;43217;52.694;6.214;2024-02-15T00:02:07;11.20;99.90
57390;DHT22;43217;52.694;6.214;2024-02-15T00:04:33;11.20;99.90
57390;DHT22;43217;52.694;6.214;2024-02-15T00:06:59;11.20;99.90
57390;DHT22;43217;52.694;6.214;2024-02-15T00:09:25;11.20;99.90
57390;DHT22;43217;52.694;6.214;2024-02-15T00:11:51;11.20;99.90
57390;DHT22;43217;52.694;6.214;2024-02-15T00:14:17;11.20;99.90
57390;DHT22;43217;52.694;6.214;2024-02-15T00:16:44;11.20;99.90
57390;DHT22;43217;52.694;6.214;2024-02-15T00:19:11;11.20;99.90
57390;DHT22;43217;52.694;6.214;2024-02-15T00:21:36;11.20;99.90
57390;DHT22;43217;52.694;6.214;2024-02-15T00:24:02;11.20;99.90
57390;DHT22;43217;52.694;6.214;2024-02-15T00:26:28;11.20;99.90
57390;DHT22;43217;52.694;6.214;2024-02-15T00:28:53;11.20;99.90
57390;DHT22;43217;52.694;6.214;2024-02-15T00:31:19;11.20;99.90
57390;DHT22;43217;52.694;6.214;2024-02-15T00:33:44;11.20;99.90
57390;DHT22;43217;52.694;6.214;2024-02-15T00:36:10;11.20;99.90
57390;DHT22;43217;52.694;6.214;2024-02-15T00:38:39;11.20;99.90
57390;DHT22;43217;52.694;6.214;2024-02-15T00:41:05;11.20;99.90
57390;DHT22;43217;52.694;6.214;2024-02-15T00:43:34;11.20;99.90
57390;DHT22;43217;52.694;6.214;2024-02-15T00:46:00;11.20;99.90
57390;DHT22;43217;52.694;6.214;2024-02-15T00:48:26;11.20;99.90
57390;DHT22;43217;52.694;6.214;2024-02-15T00:50:54;11.20;99.90
57390;DHT22;43217;52.694;6.214;2024-02-15T00:53:19;11.20;99.90
57390;DHT22;43217;52.694;6.214;2024-02-15T00:55:46;11.20;99.90
57390;DHT22;43217;52.694;6.214;2024-02-15T00:58:12;11.20;99.90
57390;DHT22;43217;52.694;6.214;2024-02-15T01:00:37;11.20;99.90
57390;DHT22;43217;52.694;6.214;2024-02-15T01:03:04;11.20;99.90
57390;DHT22;43217;52.694;6.214;2024-02-15T01:05:29;11.20;99.90
57390;DHT22;43217;52.694;6.214;2024-02-15T01:07:56;11.20;99.90
57390;DHT22;43217;52.694;6.214;2024-02-15T01:10:22;11.20;99.90
57390;DHT22;43217;52.694;6.214;2024-02-15T01:12:49;11.20;99.90
57390;DHT22;43217;52.694;6.214;2024-02-15T01:15:15;11.20;99.90
57390;DHT22;43217;52.694;6.214;2024-02-15T01:17:44;11.20;99.90
57390;DHT22;43217;52.694;6.214;2024-02-15T01:20:10;11.20;99.90
57390;DHT22;43217;52.694;6.214;2024-02-15T01:22:36;11.20;99.90
57390;DHT22;43217;52.694;6.214;2024-02-15T01:25:01;11.20;99.90
57390;DHT22;43217;52.694;6.214;2024-02-15T01:27:27;11.20;99.90
57390;DHT22;43217;52.694;6.214;2024-02-15T01:29:56;11.20;99.90
57390;DHT22;43217;52.694;6.214;2024-02-15T01:32:22;11.30;99.90
57390;DHT22;43217;52.694;6.214;2024-02-15T01:34:47;11.20;99.90
57390;DHT22;43217;52.694;6.214;2024-02-15T01:37:17;11.20;99.90
57390;DHT22;43217;52.694;6.214;2024-02-15T01:39:42;11.20;99.90
57390;DHT22;43217;52.694;6.214;2024-02-15T01:42:08;11.20;99.90
57390;DHT22;43217;52.694;6.214;2024-02-15T01:44:34;11.20;99.90
57390;DHT22;43217;52.694;6.214;2024-02-15T01:47:02;11.20;99.90
57390;DHT22;43217;52.694;6.214;2024-02-15T01:49:29;11.20;99.90
57390;DHT22;43217;52.694;6.214;2024-02-15T01:51:56;11.10;99.90
57390;DHT22;43217;52.694;6.214;2024-02-15T01:54:22;11.20;99.90
57390;DHT22;43217;52.694;6.214;2024-02-15T01:56:48;11.20;99.90
57390;DHT22;43217;52.694;6.214;2024-02-15T01:59:18;11.20;99.90
57390;DHT22;43217;52.694;6.214;2024-02-15T02:01:45;11.20;99.90
57390;DHT22;43217;52.694;6.214;2024-02-15T02:04:10;11.10;99.90
57390;DHT22;43217;52.694;6.214;2024-02-15T02:06:39;11.10;99.90
57390;DHT22;43217;52.694;6.214;2024-02-15T02:09:10;11.20;99.90
57390;DHT22;43217;52.694;6.214;2024-02-15T02:11:36;11.10;99.90
57390;DHT22;43217;52.694;6.214;2024-02-15T02:14:01;11.10;99.90
57390;DHT22;43217;52.694;6.214;2024-02-15T02:16:28;11.10;99.90
57390;DHT22;43217;52.694;6.214;2024-02-15T02:18:58;11.10;99.90
57390;DHT22;43217;52.694;6.214;2024-02-15T02:21:27;11.20;99.90
57390;DHT22;43217;52.694;6.214;2024-02-15T02:23:56;11.20;99.90
57390;DHT22;43217;52.694;6.214;2024-02-15T02:26:23;11.10;99.90
57390;DHT22;43217;52.694;6.214;2024-02-15T02:28:49;11.20;99.90
57390;DHT22;43217;52.694;6.214;2024-02-15T02:31:15;11.20;99.90
57390;DHT22;43217;52.694;6.214;2024-02-15T02:33:50;11.20;99.90
57390;DHT22;43217;52.694;6.214;2024-02-15T02:36:18;11.20;99.90
57390;DHT22;43217;52.694;6.214;2024-02-15T02:38:43;11.20;99.90
57390;DHT22;43217;52.694;6.214;2024-02-15T02:41:13;11.20;99.90
57390;DHT22;43217;52.694;6.214;2024-02-15T02:43:42;11.20;99.90
57390;DHT22;43217;52.694;6.214;2024-02-15T02:46:11;11.30;99.90
57390;DHT22;43217;52.694;6.214;2024-02-15T02:48:38;11.30;99.90
57390;DHT22;43217;52.694;6.214;2024-02-15T02:51:04;11.30;99.90
57390;DHT22;43217;52.694;6.214;2024-02-15T02:53:32;11.30;99.90
57390;DHT22;43217;52.694;6.214;2024-02-15T02:55:58;11.30;99.90
57390;DHT22;43217;52.694;6.214;2024-02-15T02:58:24;11.30;99.90
57390;DHT22;43217;52.694;6.214;2024-02-15T03:00:50;11.30;99.90
57390;DHT22;43217;52.694;6.214;2024-02-15T03:03:17;11.40;99.90
57390;DHT22;43217;52.694;6.214;2024-02-15T03:05:44;11.40;99.90
57390;DHT22;43217;52.694;6.214;2024-02-15T03:08:13;11.40;99.90
57390;DHT22;43217;52.694;6.214;2024-02-15T03:10:39;11.40;99.90
57390;DHT22;43217;52.694;6.214;2024-02-15T03:13:06;11.40;99.90
57390;DHT22;43217;52.694;6.214;2024-02-15T03:15:34;11.40;99.90
57390;DHT22;43217;52.694;6.214;2024-02-15T03:18:00;11.40;99.90
57390;DHT22;43217;52.694;6.214;2024-02-15T03:20:25;11.40;99.90
57390;DHT22;43217;52.694;6.214;2024-02-15T03:22:57;11.40;99.90
57390;DHT22;43217;52.694;6.214;2024-02-15T03:25:24;11.40;99.90
57390;DHT22;43217;52.694;6.214;2024-02-15T03:27:54;11.40;99.90
57390;DHT22;43217;52.694;6.214;2024-02-15T03:30:21;11.40;99.90
57390;DHT22;43217;52.694;6.214;2024-02-15T03:32:47;11.40;99.90
57390;DHT22;43217;52.694;6.214;2024-02-15T03:35:17;11.40;99.90
57390;DHT22;43217;52.694;6.214;2024-02-15T03:37:43;11.40;99.90
57390;DHT22;43217;52.694;6.214;2024-02-15T03:40:09;11.40;99.90
57390;DHT22;43217;52.694;6.214;2024-02-15T03:42:35;11.50;99.90
57390;DHT22;43217;52.694;6.214;2024-02-15T03:45:05;11.40;99.90
57390;DHT22;43217;52.694;6.214;2024-02-15T03:47:35;11.40;99.90
57390;DHT22;43217;52.694;6.214;2024-02-15T03:50:07;11.50;99.90
57390;DHT22;43217;52.694;6.214;2024-02-15T03:52:35;11.50;99.90
57390;DHT22;43217;52.694;6.214;2024-02-15T03:55:01;11.50;99.90
57390;DHT22;43217;52.694;6.214;2024-02-15T03:57:30;11.50;99.90
57390;DHT22;43217;52.694;6.214;2024-02-15T03:59:56;11.50;99.90
57390;DHT22;43217;52.694;6.214;2024-02-15T04:02:26;11.50;99.90
57390;DHT22;43217;52.694;6.214;2024-02-15T04:04:52;11.50;99.90
57390;DHT22;43217;52.694;6.214;2024-02-15T04:07:21;11.50;99.90
57390;DHT22;43217;52.694;6.214;2024-02-15T04:09:47;11.50;99.90
57390;DHT22;43217;52.694;6.214;2024-02-15T04:12:13;11.50;99.90
57390;DHT22;43217;52.694;6.214;2024-02-15T04:14:40;11.40;99.90
57390;DHT22;43217;52.694;6.214;2024-02-15T04:17:06;11.50;99.90
57390;DHT22;43217;52.694;6.214;2024-02-15T04:19:32;11.50;99.90
57390;DHT22;43217;52.694;6.214;2024-02-15T04:21:58;11.50;99.90
57390;DHT22;43217;52.694;6.214;2024-02-15T04:24:26;11.50;99.90
57390;DHT22;43217;52.694;6.214;2024-02-15T04:26:52;11.50;99.90
57390;DHT22;43217;52.694;6.214;2024-02-15T04:29:18;11.50;99.90
57390;DHT22;43217;52.694;6.214;2024-02-15T04:31:46;11.50;99.90
57390;DHT22;43217;52.694;6.214;2024-02-15T04:34:18;11.50;99.90
57390;DHT22;43217;52.694;6.214;2024-02-15T04:36:47;11.50;99.90
57390;DHT22;43217;52.694;6.214;2024-02-15T04:39:20;11.50;99.90
57390;DHT22;43217;52.694;6.214;2024-02-15T04:41:53;11.50;99.90
57390;DHT22;43217;52.694;6.214;2024-02-15T04:44:19;11.50;99.90
57390;DHT22;43217;52.694;6.214;2024-02-15T04:46:52;11.50;99.90
57390;DHT22;43217;52.694;6.214;2024-02-15T04:49:18;11.50;99.90
57390;DHT22;43217;52.694;6.214;2024-02-15T04:51:44;11.50;99.90
57390;DHT22;43217;52.694;6.214;2024-02-15T04:54:13;11.50;99.90
57390;DHT22;43217;52.694;6.214;2024-02-15T04:56:40;11.50;99.90
57390;DHT22;43217;52.694;6.214;2024-02-15T04:59:09;11.50;99.90
57390;DHT22;43217;52.694;6.214;2024-02-15T05:01:37;11.50;99.90
57390;DHT22;43217;52.694;6.214;2024-02-15T05:04:03;11.50;99.90
57390;DHT22;43217;52.694;6.214;2024-02-15T05:06:32;11.50;99.90
57390;DHT22;43217;52.694;6.214;2024-02-15T05:08:58;11.50;99.90
57390;DHT22;43217;52.694;6.214;2024-02-15T05:11:25;11.50;99.90
57390;DHT22;43217;52.694;6.214;2024-02-15T05:13:51;11.50;99.90
57390;DHT22;43217;52.694;6.214;2024-02-15T05:16:18;11.50;99.90
57390;DHT22;43217;52.694;6.214;2024-02-15T05:18:44;11.50;99.90
57390;DHT22;43217;52.694;6.214;2024-02-15T05:21:11;11.50;99.90
57390;DHT22;43217;52.694;6.214;2024-02-15T05:23:37;11.40;99.90
57390;DHT22;43217;52.694;6.214;2024-02-15T05:26:05;11.50;99.90
57390;DHT22;43217;52.694;6.214;2024-02-15T05:28:31;11.40;99.90
57390;DHT22;43217;52.694;6.214;2024-02-15T05:31:20;11.40;99.90
57390;DHT22;43217;52.694;6.214;2024-02-15T05:33:53;11.40;99.90
57390;DHT22;43217;52.694;6.214;2024-02-15T05:36:20;11.40;99.90
57390;DHT22;43217;52.694;6.214;2024-02-15T05:38:50;11.40;99.90
57390;DHT22;43217;52.694;6.214;2024-02-15T05:41:17;11.40;99.90
57390;DHT22;43217;52.694;6.214;2024-02-15T05:43:43;11.40;99.90
57390;DHT22;43217;52.694;6.214;2024-02-15T05:46:09;11.40;99.90
57390;DHT22;43217;52.694;6.214;2024-02-15T05:48:36;11.50;99.90
57390;DHT22;43217;52.694;6.214;2024-02-15T05:51:06;11.50;99.90
57390;DHT22;43217;52.694;6.214;2024-02-15T05:53:32;11.50;99.90
57390;DHT22;43217;52.694;6.214;2024-02-15T05:56:08;11.50;99.90
57390;DHT22;43217;52.694;6.214;2024-02-15T05:58:34;11.50;99.90
57390;DHT22;43217;52.694;6.214;2024-02-15T06:01:04;11.50;99.90
57390;DHT22;43217;52.694;6.214;2024-02-15T06:03:38;11.50;99.90
57390;DHT22;43217;52.694;6.214;2024-02-15T06:06:06;11.50;99.90
57390;DHT22;43217;52.694;6.214;2024-02-15T06:08:36;11.50;99.90
57390;DHT22;43217;52.694;6.214;2024-02-15T06:11:02;11.60;99.90
57390;DHT22;43217;52.694;6.214;2024-02-15T06:13:29;11.60;99.90
57390;DHT22;43217;52.694;6.214;2024-02-15T06:15:55;11.50;99.90
57390;DHT22;43217;52.694;6.214;2024-02-15T06:18:30;11.60;99.90
57390;DHT22;43217;52.694;6.214;2024-02-15T06:20:58;11.50;99.90
57390;DHT22;43217;52.694;6.214;2024-02-15T06:23:27;11.60;99.90
57390;DHT22;43217;52.694;6.214;2024-02-15T06:25:55;11.60;99.90
57390;DHT22;43217;52.694;6.214;2024-02-15T06:28:26;11.60;99.90
57390;DHT22;43217;52.694;6.214;2024-02-15T06:31:11;11.60;99.90
57390;DHT22;43217;52.694;6.214;2024-02-15T06:33:56;11.60;99.90
57390;DHT22;43217;52.694;6.214;2024-02-15T06:36:47;11.60;99.90
57390;DHT22;43217;52.694;6.214;2024-02-15T06:39:31;11.60;99.90
57390;DHT22;43217;52.694;6.214;2024-02-15T06:42:16;11.60;99.90
57390;DHT22;43217;52.694;6.214;2024-02-15T06:44:43;11.60;99.90
57390;DHT22;43217;52.694;6.214;2024-02-15T06:47:10;11.60;99.90
57390;DHT22;43217;52.694;6.214;2024-02-15T06:49:40;11.60;99.90
57390;DHT22;43217;52.694;6.214;2024-02-15T06:52:09;11.60;99.90
57390;DHT22;43217;52.694;6.214;2024-02-15T06:54:40;11.60;99.90
57390;DHT22;43217;52.694;6.214;2024-02-15T06:57:06;11.60;99.90
57390;DHT22;43217;52.694;6.214;2024-02-15T06:59:33;11.60;99.90
57390;DHT22;43217;52.694;6.214;2024-02-15T07:02:00;11.60;99.90
57390;DHT22;43217;52.694;6.214;2024-02-15T07:04:25;11.60;99.90
57390;DHT22;43217;52.694;6.214;2024-02-15T07:06:52;11.60;99.90
57390;DHT22;43217;52.694;6.214;2024-02-15T07:09:20;11.60;99.90
57390;DHT22;43217;52.694;6.214;2024-02-15T07:11:46;11.60;99.90
57390;DHT22;43217;52.694;6.214;2024-02-15T07:14:12;11.60;99.90
57390;DHT22;43217;52.694;6.214;2024-02-15T07:16:38;11.60;99.90
57390;DHT22;43217;52.694;6.214;2024-02-15T07:19:07;11.50;99.90
57390;DHT22;43217;52.694;6.214;2024-02-15T07:21:34;11.50;99.90
57390;DHT22;43217;52.694;6.214;2024-02-15T07:24:00;11.60;99.90
57390;DHT22;43217;52.694;6.214;2024-02-15T07:26:25;11.50;99.90
57390;DHT22;43217;52.694;6.214;2024-02-15T07:28:52;11.60;99.90
57390;DHT22;43217;52.694;6.214;2024-02-15T07:31:21;11.50;99.90
57390;DHT22;43217;52.694;6.214;2024-02-15T07:33:50;11.50;99.90
57390;DHT22;43217;52.694;6.214;2024-02-15T07:36:23;11.50;99.90
57390;DHT22;43217;52.694;6.214;2024-02-15T07:38:52;11.60;99.90
57390;DHT22;43217;52.694;6.214;2024-02-15T07:41:19;11.60;99.90
57390;DHT22;43217;52.694;6.214;2024-02-15T07:43:50;11.60;99.90
57390;DHT22;43217;52.694;6.214;2024-02-15T07:46:18;11.60;99.90
57390;DHT22;43217;52.694;6.214;2024-02-15T07:48:44;11.60;99.90
57390;DHT22;43217;52.694;6.214;2024-02-15T07:51:15;11.60;99.90
57390;DHT22;43217;52.694;6.214;2024-02-15T07:53:41;11.60;99.90
57390;DHT22;43217;52.694;6.214;2024-02-15T07:56:10;11.60;99.90
57390;DHT22;43217;52.694;6.214;2024-02-15T07:58:43;11.60;99.90
57390;DHT22;43217;52.694;6.214;2024-02-15T08:01:15;11.60;99.90
57390;DHT22;43217;52.694;6.214;2024-02-15T08:03:41;11.60;99.90
57390;DHT22;43217;52.694;6.214;2024-02-15T08:06:13;11.60;99.90
57390;DHT22;43217;52.694;6.214;2024-02-15T08:08:44;11.60;99.90
57390;DHT22;43217;52.694;6.214;2024-02-15T08:11:11;11.60;99.90
57390;DHT22;43217;52.694;6.214;2024-02-15T08:13:51;11.60;99.90
57390;DHT22;43217;52.694;6.214;2024-02-15T08:16:20;11.60;99.90
57390;DHT22;43217;52.694;6.214;2024-02-15T08:18:50;11.60;99.90
57390;DHT22;43217;52.694;6.214;2024-02-15T08:21:25;11.60;99.90
57390;DHT22;43217;52.694;6.214;2024-02-15T08:23:51;11.70;99.90
57390;DHT22;43217;52.694;6.214;2024-02-15T08:26:17;11.70;99.90
57390;DHT22;43217;52.694;6.214;2024-02-15T08:28:42;11.70;99.90
57390;DHT22;43217;52.694;6.214;2024-02-15T08:31:08;11.70;99.90
57390;DHT22;43217;52.694;6.214;2024-02-15T08:33:35;11.70;99.90
57390;DHT22;43217;52.694;6.214;2024-02-15T08:36:01;11.70;99.90
57390;DHT22;43217;52.694;6.214;2024-02-15T08:38:27;11.70;99.90
57390;DHT22;43217;52.694;6.214;2024-02-15T08:40:53;11.70;99.90
57390;DHT22;43217;52.694;6.214;2024-02-15T08:43:18;11.70;99.90
57390;DHT22;43217;52.694;6.214;2024-02-15T08:45:44;11.70;99.90
57390;DHT22;43217;52.694;6.214;2024-02-15T08:48:10;11.70;99.90
57390;DHT22;43217;52.694;6.214;2024-02-15T08:50:36;11.80;99.90
57390;DHT22;43217;52.694;6.214;2024-02-15T08:53:02;11.80;99.90
57390;DHT22;43217;52.694;6.214;2024-02-15T08:55:32;11.80;99.90
57390;DHT22;43217;52.694;6.214;2024-02-15T08:58:00;11.80;99.90
57390;DHT22;43217;52.694;6.214;2024-02-15T09:00:27;11.80;99.90
57390;DHT22;43217;52.694;6.214;2024-02-15T09:02:53;11.80;99.90
57390;DHT22;43217;52.694;6.214;2024-02-15T09:05:19;11.80;99.90
57390;DHT22;43217;52.694;6.214;2024-02-15T09:07:47;11.80;99.90
57390;DHT22;43217;52.694;6.214;2024-02-15T09:10:14;11.80;99.90
57390;DHT22;43217;52.694;6.214;2024-02-15T09:12:43;11.80;99.90
57390;DHT22;43217;52.694;6.214;2024-02-15T09:15:10;11.80;99.90
57390;DHT22;43217;52.694;6.214;2024-02-15T09:17:42;11.80;99.90
57390;DHT22;43217;52.694;6.214;2024-02-15T09:20:10;11.90;99.90
57390;DHT22;43217;52.694;6.214;2024-02-15T09:22:52;11.80;99.90
57390;DHT22;43217;52.694;6.214;2024-02-15T09:25:20;11.90;99.90
57390;DHT22;43217;52.694;6.214;2024-02-15T09:27:49;11.90;99.90
57390;DHT22;43217;52.694;6.214;2024-02-15T09:30:16;11.90;99.90
57390;DHT22;43217;52.694;6.214;2024-02-15T09:32:42;11.90;99.90
57390;DHT22;43217;52.694;6.214;2024-02-15T09:35:10;11.90;99.90
57390;DHT22;43217;52.694;6.214;2024-02-15T09:37:38;11.90;99.90
57390;DHT22;43217;52.694;6.214;2024-02-15T09:40:08;12.00;99.90
57390;DHT22;43217;52.694;6.214;2024-02-15T09:42:36;12.00;99.90
57390;DHT22;43217;52.694;6.214;2024-02-15T09:45:05;12.00;99.90
57390;DHT22;43217;52.694;6.214;2024-02-15T09:47:37;12.10;99.90
57390;DHT22;43217;52.694;6.214;2024-02-15T09:52:45;12.10;99.90
57390;DHT22;43217;52.694;6.214;2024-02-15T09:55:11;12.10;99.90
57390;DHT22;43217;52.694;6.214;2024-02-15T09:57:46;12.20;99.90
57390;DHT22;43217;52.694;6.214;2024-02-15T10:00:12;12.20;99.90
57390;DHT22;43217;52.694;6.214;2024-02-15T10:02:50;12.20;99.90
57390;DHT22;43217;52.694;6.214;2024-02-15T10:05:18;12.30;99.90
57390;DHT22;43217;52.694;6.214;2024-02-15T10:07:48;12.30;99.90
57390;DHT22;43217;52.694;6.214;2024-02-15T10:10:22;12.30;99.90
57390;DHT22;43217;52.694;6.214;2024-02-15T10:12:51;12.30;99.90
57390;DHT22;43217;52.694;6.214;2024-02-15T10:15:36;12.40;99.90
57390;DHT22;43217;52.694;6.214;2024-02-15T10:18:06;12.40;99.90
57390;DHT22;43217;52.694;6.214;2024-02-15T10:20:34;12.40;99.90
57390;DHT22;43217;52.694;6.214;2024-02-15T10:23:13;12.40;99.90
57390;DHT22;43217;52.694;6.214;2024-02-15T10:25:43;12.40;99.90
57390;DHT22;43217;52.694;6.214;2024-02-15T10:28:12;12.40;99.90
57390;DHT22;43217;52.694;6.214;2024-02-15T10:30:42;12.40;99.90
57390;DHT22;43217;52.694;6.214;2024-02-15T10:33:09;12.40;99.90
57390;DHT22;43217;52.694;6.214;2024-02-15T10:35:35;12.30;99.90
57390;DHT22;43217;52.694;6.214;2024-02-15T10:38:11;12.30;99.90
57390;DHT22;43217;52.694;6.214;2024-02-15T10:40:39;12.30;99.90
57390;DHT22;43217;52.694;6.214;2024-02-15T10:43:09;12.30;99.90
57390;DHT22;43217;52.694;6.214;2024-02-15T10:45:38;12.30;99.90
57390;DHT22;43217;52.694;6.214;2024-02-15T10:48:07;12.30;99.90
57390;DHT22;43217;52.694;6.214;2024-02-15T10:50:33;12.30;99.90
57390;DHT22;43217;52.694;6.214;2024-02-15T10:52:59;12.30;99.90
57390;DHT22;43217;52.694;6.214;2024-02-15T10:55:32;12.30;99.90
57390;DHT22;43217;52.694;6.214;2024-02-15T10:58:01;12.30;99.90
57390;DHT22;43217;52.694;6.214;2024-02-15T11:00:32;12.30;99.90
57390;DHT22;43217;52.694;6.214;2024-02-15T11:03:03;12.30;99.90
57390;DHT22;43217;52.694;6.214;2024-02-15T11:05:34;12.30;99.90
57390;DHT22;43217;52.694;6.214;2024-02-15T11:08:05;12.30;99.90
57390;DHT22;43217;52.694;6.214;2024-02-15T11:10:32;12.30;99.90
57390;DHT22;43217;52.694;6.214;2024-02-15T11:13:00;12.30;99.90
57390;DHT22;43217;52.694;6.214;2024-02-15T11:15:45;12.30;99.90
57390;DHT22;43217;52.694;6.214;2024-02-15T11:18:12;12.30;99.90
57390;DHT22;43217;52.694;6.214;2024-02-15T11:23:04;12.30;99.90
57390;DHT22;43217;52.694;6.214;2024-02-15T11:25:34;12.30;99.90
57390;DHT22;43217;52.694;6.214;2024-02-15T11:30:50;12.30;99.90
57390;DHT22;43217;52.694;6.214;2024-02-15T11:36:08;12.30;99.90
57390;DHT22;43217;52.694;6.214;2024-02-15T11:38:40;12.30;99.90
57390;DHT22;43217;52.694;6.214;2024-02-15T11:41:08;12.30;99.90
57390;DHT22;43217;52.694;6.214;2024-02-15T11:46:14;12.40;99.90
57390;DHT22;43217;52.694;6.214;2024-02-15T11:48:39;12.40;99.90
57390;DHT22;43217;52.694;6.214;2024-02-15T11:51:06;12.40;99.90
57390;DHT22;43217;52.694;6.214;2024-02-15T11:53:37;12.40;99.90
57390;DHT22;43217;52.694;6.214;2024-02-15T11:56:03;12.40;99.90
57390;DHT22;43217;52.694;6.214;2024-02-15T11:58:31;12.40;99.90
57390;DHT22;43217;52.694;6.214;2024-02-15T12:01:17;12.40;99.90
57390;DHT22;43217;52.694;6.214;2024-02-15T12:04:02;12.40;99.90
57390;DHT22;43217;52.694;6.214;2024-02-15T12:06:46;12.40;99.90
57390;DHT22;43217;52.694;6.214;2024-02-15T12:09:30;12.40;99.90
57390;DHT22;43217;52.694;6.214;2024-02-15T12:12:14;12.40;99.90
57390;DHT22;43217;52.694;6.214;2024-02-15T12:15:03;12.40;99.90
57390;DHT22;43217;52.694;6.214;2024-02-15T12:18:17;12.40;99.90
57390;DHT22;43217;52.694;6.214;2024-02-15T12:21:02;12.40;99.90
57390;DHT22;43217;52.694;6.214;2024-02-15T12:23:28;12.40;99.90
57390;DHT22;43217;52.694;6.214;2024-02-15T12:25:57;12.50;99.90
57390;DHT22;43217;52.694;6.214;2024-02-15T12:28:23;12.50;99.90
57390;DHT22;43217;52.694;6.214;2024-02-15T12:30:55;12.50;99.90
57390;DHT22;43217;52.694;6.214;2024-02-15T12:33:24;12.50;99.90
57390;DHT22;43217;52.694;6.214;2024-02-15T12:35:50;12.50;99.90
57390;DHT22;43217;52.694;6.214;2024-02-15T12:38:16;12.50;99.90
57390;DHT22;43217;52.694;6.214;2024-02-15T12:40:42;12.50;99.90
57390;DHT22;43217;52.694;6.214;2024-02-15T12:43:11;12.50;99.90
57390;DHT22;43217;52.694;6.214;2024-02-15T12:45:39;12.50;99.90
57390;DHT22;43217;52.694;6.214;2024-02-15T12:48:05;12.50;99.90
57390;DHT22;43217;52.694;6.214;2024-02-15T12:50:31;12.40;99.90
57390;DHT22;43217;52.694;6.214;2024-02-15T12:52:57;12.40;99.90
57390;DHT22;43217;52.694;6.214;2024-02-15T12:55:30;12.40;99.90
57390;DHT22;43217;52.694;6.214;2024-02-15T12:58:11;12.40;99.90
57390;DHT22;43217;52.694;6.214;2024-02-15T13:00:39;12.40;99.90
57390;DHT22;43217;52.694;6.214;2024-02-15T13:03:07;12.40;99.90
57390;DHT22;43217;52.694;6.214;2024-02-15T13:05:37;12.40;99.90
57390;DHT22;43217;52.694;6.214;2024-02-15T13:08:03;12.40;99.90
57390;DHT22;43217;52.694;6.214;2024-02-15T13:10:31;12.40;99.90
57390;DHT22;43217;52.694;6.214;2024-02-15T13:12:57;12.40;99.90
57390;DHT22;43217;52.694;6.214;2024-02-15T13:15:24;12.40;99.90
57390;DHT22;43217;52.694;6.214;2024-02-15T13:17:58;12.40;99.90
57390;DHT22;43217;52.694;6.214;2024-02-15T13:20:23;12.40;99.90
57390;DHT22;43217;52.694;6.214;2024-02-15T13:23:00;12.40;99.90
57390;DHT22;43217;52.694;6.214;2024-02-15T13:25:28;12.40;99.90
57390;DHT22;43217;52.694;6.214;2024-02-15T13:27:55;12.40;99.90
57390;DHT22;43217;52.694;6.214;2024-02-15T13:30:22;12.40;99.90
57390;DHT22;43217;52.694;6.214;2024-02-15T13:32:52;12.40;99.90
57390;DHT22;43217;52.694;6.214;2024-02-15T13:35:18;12.40;99.90
57390;DHT22;43217;52.694;6.214;2024-02-15T13:40:15;12.40;99.90
57390;DHT22;43217;52.694;6.214;2024-02-15T13:42:44;12.50;99.90
57390;DHT22;43217;52.694;6.214;2024-02-15T13:45:22;12.50;99.90
57390;DHT22;43217;52.694;6.214;2024-02-15T13:47:49;12.50;99.90
57390;DHT22;43217;52.694;6.214;2024-02-15T13:50:16;12.50;99.90
57390;DHT22;43217;52.694;6.214;2024-02-15T13:52:43;12.50;99.90
57390;DHT22;43217;52.694;6.214;2024-02-15T13:55:14;12.50;99.90
57390;DHT22;43217;52.694;6.214;2024-02-15T13:57:41;12.50;99.90
57390;DHT22;43217;52.694;6.214;2024-02-15T14:00:11;12.60;99.90
57390;DHT22;43217;52.694;6.214;2024-02-15T14:02:47;12.60;99.90
57390;DHT22;43217;52.694;6.214;2024-02-15T14:05:13;12.60;99.90
57390;DHT22;43217;52.694;6.214;2024-02-15T14:07:39;12.60;99.90
57390;DHT22;43217;52.694;6.214;2024-02-15T14:10:06;12.70;99.90
57390;DHT22;43217;52.694;6.214;2024-02-15T14:12:33;12.70;99.90
57390;DHT22;43217;52.694;6.214;2024-02-15T14:14:58;12.80;99.90
57390;DHT22;43217;52.694;6.214;2024-02-15T14:17:24;12.70;99.90
57390;DHT22;43217;52.694;6.214;2024-02-15T14:19:50;12.80;99.90
57390;DHT22;43217;52.694;6.214;2024-02-15T14:22:15;12.80;99.90
57390;DHT22;43217;52.694;6.214;2024-02-15T14:24:42;12.90;99.90
57390;DHT22;43217;52.694;6.214;2024-02-15T14:27:09;12.90;99.90
57390;DHT22;43217;52.694;6.214;2024-02-15T14:29:35;12.90;99.90
57390;DHT22;43217;52.694;6.214;2024-02-15T14:32:03;12.90;99.90
57390;DHT22;43217;52.694;6.214;2024-02-15T14:34:48;13.00;99.90
57390;DHT22;43217;52.694;6.214;2024-02-15T14:37:15;13.00;99.90
57390;DHT22;43217;52.694;6.214;2024-02-15T14:39:42;13.00;99.90
57390;DHT22;43217;52.694;6.214;2024-02-15T14:42:08;13.00;99.90
57390;DHT22;43217;52.694;6.214;2024-02-15T14:44:34;13.10;99.90
57390;DHT22;43217;52.694;6.214;2024-02-15T14:46:59;13.10;99.90
57390;DHT22;43217;52.694;6.214;2024-02-15T14:49:25;13.10;99.90
57390;DHT22;43217;52.694;6.214;2024-02-15T14:51:51;13.10;99.90
57390;DHT22;43217;52.694;6.214;2024-02-15T14:54:17;13.10;99.90
57390;DHT22;43217;52.694;6.214;2024-02-15T14:56:44;13.10;99.90
57390;DHT22;43217;52.694;6.214;2024-02-15T14:59:10;13.10;99.90
57390;DHT22;43217;52.694;6.214;2024-02-15T15:01:37;13.10;99.90
57390;DHT22;43217;52.694;6.214;2024-02-15T15:04:03;13.20;99.90
57390;DHT22;43217;52.694;6.214;2024-02-15T15:06:31;13.20;99.90
57390;DHT22;43217;52.694;6.214;2024-02-15T15:09:16;13.20;99.90
57390;DHT22;43217;52.694;6.214;2024-02-15T15:12:00;13.20;99.90
57390;DHT22;43217;52.694;6.214;2024-02-15T15:14:44;13.20;99.90
57390;DHT22;43217;52.694;6.214;2024-02-15T15:17:11;13.20;99.90
57390;DHT22;43217;52.694;6.214;2024-02-15T15:19:38;13.20;99.90
57390;DHT22;43217;52.694;6.214;2024-02-15T15:22:04;13.20;99.90
57390;DHT22;43217;52.694;6.214;2024-02-15T15:24:33;13.20;99.90
57390;DHT22;43217;52.694;6.214;2024-02-15T15:26:59;13.20;99.90
57390;DHT22;43217;52.694;6.214;2024-02-15T15:29:26;13.10;99.90
57390;DHT22;43217;52.694;6.214;2024-02-15T15:31:52;13.10;99.90
57390;DHT22;43217;52.694;6.214;2024-02-15T15:34:18;13.10;99.90
57390;DHT22;43217;52.694;6.214;2024-02-15T15:36:45;13.10;99.90
57390;DHT22;43217;52.694;6.214;2024-02-15T15:39:14;13.10;99.90
57390;DHT22;43217;52.694;6.214;2024-02-15T15:41:44;13.10;99.90
57390;DHT22;43217;52.694;6.214;2024-02-15T15:44:09;13.00;99.90
57390;DHT22;43217;52.694;6.214;2024-02-15T15:46:35;13.00;99.90
57390;DHT22;43217;52.694;6.214;2024-02-15T15:49:01;13.00;99.90
57390;DHT22;43217;52.694;6.214;2024-02-15T15:51:29;13.00;99.90
57390;DHT22;43217;52.694;6.214;2024-02-15T15:53:55;13.00;99.90
57390;DHT22;43217;52.694;6.214;2024-02-15T15:56:21;13.00;99.90